Time;durP1;ratioP1;P1;durP2;ratioP2;P2;SDS_P1;SDS_P2;PMS_P1;PMS_P2;Temp;Humidity;BMP_temperature;BMP_pressure;BME280_temperature;BME280_humidity;BME280_pressure;Samples;Min_cycle;Max_cycle;Signal;HPM_P1;HPM_P2
2021/12/16 00:08:39;;;;;;;172.68;65.30;;;8.10;99.90;;;;;;5082286;28;20149;-74
2021/12/16 00:33:33;;;;;;;187.65;71.00;;;8.00;99.90;;;;;;5043398;28;20562;-74
2021/12/16 00:35:49;;;;;;;185.90;69.25;;;8.00;99.90;;;;;;5073021;28;20269;-74
2021/12/16 00:38:17;;;;;;;167.65;62.58;;;8.00;99.90;;;;;;5081357;28;20135;-74
2021/12/16 00:40:44;;;;;;;154.40;59.38;;;8.00;99.90;;;;;;5081971;28;20063;-74
2021/12/16 00:43:18;;;;;;;169.55;63.22;;;7.90;99.90;;;;;;5082607;28;20044;-74
2021/12/16 00:48:26;;;;;;;174.73;69.13;;;8.00;99.90;;;;;;5080834;28;20091;-74
2021/12/16 00:56:14;;;;;;;187.80;66.65;;;8.00;99.90;;;;;;5063257;28;20522;-73
2021/12/16 00:58:50;;;;;;;164.25;61.35;;;8.00;99.90;;;;;;5074939;28;20044;-74
2021/12/16 01:01:37;;;;;;;172.07;65.38;;;7.90;99.90;;;;;;5046130;28;20041;-74
2021/12/16 01:06:57;;;;;;;176.63;68.55;;;7.90;99.90;;;;;;5079809;28;20048;-74
2021/12/16 01:42:33;;;;;;;195.48;66.05;;;7.70;99.90;;;;;;5066918;28;20040;-74
2021/12/16 01:56:04;;;;;;;196.45;64.68;;;7.70;99.90;;;;;;5066093;28;20058;-74
2021/12/16 01:58:33;;;;;;;200.30;67.32;;;7.70;99.90;;;;;;5082995;28;20064;-73
2021/12/16 02:01:19;;;;;;;190.35;62.88;;;7.60;99.90;;;;;;5082974;28;20063;-73
2021/12/16 02:03:52;;;;;;;194.40;67.80;;;7.50;99.90;;;;;;5066491;28;20059;-74
2021/12/16 02:06:45;;;;;;;181.85;62.85;;;7.50;99.90;;;;;;5082839;28;20043;-73
2021/12/16 02:09:19;;;;;;;175.48;60.88;;;7.50;99.90;;;;;;5081378;28;20526;-74
2021/12/16 02:11:58;;;;;;;162.02;60.75;;;7.60;99.90;;;;;;5065969;28;20044;-73
2021/12/16 02:36:42;;;;;;;159.52;58.33;;;7.50;99.90;;;;;;5061166;28;20036;-73
2021/12/16 02:39:16;;;;;;;163.13;59.30;;;7.50;99.90;;;;;;5045056;28;20049;-74
2021/12/16 02:41:45;;;;;;;168.65;59.90;;;7.50;99.90;;;;;;5045071;28;20327;-73
2021/12/16 02:44:33;;;;;;;163.13;60.95;;;7.50;99.90;;;;;;5063893;28;20056;-74
2021/12/16 02:49:51;;;;;;;171.73;58.90;;;7.40;99.90;;;;;;5065756;28;20053;-73
2021/12/16 02:52:20;;;;;;;183.23;60.75;;;7.50;99.90;;;;;;5058587;28;20574;-73
2021/12/16 02:54:47;;;;;;;175.43;60.70;;;7.50;99.90;;;;;;5042047;28;20076;-73
2021/12/16 02:57:15;;;;;;;171.20;59.25;;;7.50;99.90;;;;;;5017863;28;20032;-73
2021/12/16 02:59:43;;;;;;;180.00;58.47;;;7.40;99.90;;;;;;5046042;28;20504;-74
2021/12/16 03:02:13;;;;;;;158.20;58.65;;;7.40;99.90;;;;;;5061689;28;20047;-73
2021/12/16 03:04:46;;;;;;;154.10;55.65;;;7.40;99.90;;;;;;5027853;28;20048;-73
2021/12/16 03:07:15;;;;;;;152.95;57.75;;;7.50;99.90;;;;;;5066161;28;20063;-73
2021/12/16 03:15:10;;;;;;;146.30;56.28;;;7.40;99.90;;;;;;5033794;28;20548;-73
2021/12/16 03:17:55;;;;;;;157.30;57.00;;;7.40;99.90;;;;;;5044120;28;20045;-72
2021/12/16 03:20:41;;;;;;;161.23;60.50;;;7.40;99.90;;;;;;5061187;28;20662;-72
2021/12/16 03:23:36;;;;;;;151.38;58.20;;;7.40;99.90;;;;;;5044803;28;20076;-72
2021/12/16 03:29:06;;;;;;;158.63;58.65;;;7.30;99.90;;;;;;5060807;28;20480;-72
2021/12/16 03:34:59;;;;;;;159.40;59.35;;;7.20;99.90;;;;;;5043083;28;20053;-72
2021/12/16 03:37:28;;;;;;;161.45;58.78;;;7.20;99.90;;;;;;5051479;28;20068;-73
2021/12/16 03:40:07;;;;;;;166.48;60.40;;;7.20;99.90;;;;;;5027640;28;20431;-72
2021/12/16 03:42:42;;;;;;;162.50;57.58;;;7.20;99.90;;;;;;5044521;28;20044;-72
2021/12/16 03:46:25;;;;;;;163.70;61.88;;;7.20;99.90;;;;;;5057552;28;20041;-72
2021/12/16 03:48:11;;;;;;;167.95;57.97;;;7.20;99.90;;;;;;5064859;28;20225;-72
2021/12/16 03:50:40;;;;;;;180.18;63.60;;;7.20;99.90;;;;;;5047578;28;20044;-72
2021/12/16 03:53:09;;;;;;;173.90;60.70;;;7.30;99.90;;;;;;5042936;28;20060;-72
2021/12/16 03:55:36;;;;;;;187.35;67.03;;;7.20;99.90;;;;;;5042989;28;20123;-72
2021/12/16 03:58:05;;;;;;;202.32;68.65;;;7.20;99.90;;;;;;5043305;28;20049;-72
2021/12/16 04:00:37;;;;;;;191.38;66.57;;;7.20;99.90;;;;;;5059968;28;20440;-73
2021/12/16 04:03:04;;;;;;;209.65;68.55;;;7.20;99.90;;;;;;5027112;28;20052;-72
2021/12/16 04:05:38;;;;;;;216.30;70.63;;;7.20;99.90;;;;;;5073995;28;20072;-72
2021/12/16 04:08:07;;;;;;;207.50;69.78;;;7.20;99.90;;;;;;5042134;28;20662;-72
2021/12/16 04:11:05;;;;;;;217.88;71.22;;;7.20;99.90;;;;;;5042727;28;20052;-72
2021/12/16 04:13:54;;;;;;;210.52;69.43;;;7.20;99.90;;;;;;5043462;28;20055;-72
2021/12/16 04:16:28;;;;;;;220.80;72.65;;;7.20;99.90;;;;;;5045635;28;20040;-72
2021/12/16 04:18:57;;;;;;;205.50;70.80;;;7.10;99.90;;;;;;5054530;28;20135;-72
2021/12/16 04:21:26;;;;;;;221.27;76.68;;;7.10;99.90;;;;;;5088090;22;20198;-75
2021/12/16 04:23:57;;;;;;;222.27;73.97;;;7.10;99.90;;;;;;5037177;28;20059;-75
2021/12/16 04:26:27;;;;;;;238.50;78.50;;;7.10;99.90;;;;;;5035113;28;20049;-75
2021/12/16 04:28:55;;;;;;;248.35;72.22;;;7.10;99.90;;;;;;5060762;28;20087;-75
2021/12/16 04:31:22;;;;;;;234.75;74.00;;;7.10;99.90;;;;;;5041485;28;20044;-75
2021/12/16 04:33:51;;;;;;;250.50;74.57;;;7.20;99.90;;;;;;5024427;28;20677;-75
2021/12/16 04:36:21;;;;;;;251.07;74.28;;;7.20;99.90;;;;;;5042641;28;20069;-75
2021/12/16 04:38:48;;;;;;;253.80;75.63;;;7.20;99.90;;;;;;5027276;28;20541;-75
2021/12/16 04:41:17;;;;;;;252.38;76.95;;;7.20;99.90;;;;;;5023954;28;20072;-75
2021/12/16 04:43:49;;;;;;;249.55;76.30;;;7.30;99.90;;;;;;5026534;28;20468;-75
2021/12/16 04:46:24;;;;;;;265.33;79.15;;;7.30;99.90;;;;;;5024018;28;20095;-76
2021/12/16 04:48:54;;;;;;;259.67;76.70;;;7.30;99.90;;;;;;5017179;28;20068;-76
2021/12/16 04:51:31;;;;;;;280.30;81.28;;;7.30;99.90;;;;;;5039637;28;20473;-76
2021/12/16 04:53:58;;;;;;;282.52;82.13;;;7.30;99.90;;;;;;5040517;28;20322;-76
2021/12/16 04:56:27;;;;;;;298.02;86.10;;;7.30;99.90;;;;;;5039811;28;20521;-76
2021/12/16 04:59:08;;;;;;;329.30;90.07;;;7.40;99.90;;;;;;5016122;28;20135;-76
2021/12/16 05:01:39;;;;;;;362.98;89.80;;;7.30;99.90;;;;;;5017631;28;20041;-76
2021/12/16 05:04:06;;;;;;;392.10;95.43;;;7.30;99.90;;;;;;5024801;28;20045;-78
2021/12/16 05:06:34;;;;;;;507.30;107.13;;;7.40;99.90;;;;;;5009548;28;20045;-76
2021/12/16 05:09:06;;;;;;;562.60;111.63;;;7.40;99.90;;;;;;5025528;28;20444;-76
2021/12/16 05:11:42;;;;;;;611.63;118.25;;;7.40;99.90;;;;;;5012288;28;20265;-76
2021/12/16 05:14:09;;;;;;;655.97;120.13;;;7.40;99.90;;;;;;5010868;28;20053;-76
2021/12/16 05:16:41;;;;;;;609.58;113.78;;;7.40;99.90;;;;;;5025540;28;20037;-76
2021/12/16 05:19:08;;;;;;;925.05;143.07;;;7.40;99.90;;;;;;5024793;28;20080;-78
2021/12/16 05:24:14;;;;;;;1030.75;146.52;;;7.30;99.90;;;;;;5026914;28;20543;-77
2021/12/16 05:24:27;;;;;;;1139.70;158.70;;;7.30;99.90;;;;;;5030900;28;20322;-75
2021/12/16 05:27:10;;;;;;;1183.35;164.82;;;7.30;99.90;;;;;;5025978;28;20819;-76
2021/12/16 05:29:38;;;;;;;1126.13;159.52;;;7.30;99.90;;;;;;5026835;28;20053;-77
2021/12/16 05:32:07;;;;;;;1162.70;159.55;;;7.30;99.90;;;;;;5027160;28;20111;-77
2021/12/16 05:34:34;;;;;;;1184.30;160.68;;;7.20;99.90;;;;;;5027251;28;20048;-78
2021/12/16 05:37:04;;;;;;;1082.35;155.60;;;7.30;99.90;;;;;;5024306;28;20041;-76
2021/12/16 05:39:35;;;;;;;1091.50;159.27;;;7.30;99.90;;;;;;5045132;28;20664;-77
2021/12/16 05:42:16;;;;;;;1238.78;163.40;;;7.30;99.90;;;;;;5026951;28;20056;-77
2021/12/16 05:44:44;;;;;;;1239.53;163.00;;;7.30;99.90;;;;;;5035174;28;20040;-76
2021/12/16 05:47:11;;;;;;;1118.50;154.93;;;7.30;99.90;;;;;;5027382;28;20045;-78
2021/12/16 05:49:38;;;;;;;1164.70;157.68;;;7.30;99.90;;;;;;5026674;28;20183;-76
2021/12/16 05:52:04;;;;;;;1198.85;160.23;;;7.20;99.90;;;;;;5026083;28;20048;-76
2021/12/16 05:54:31;;;;;;;1248.32;166.25;;;7.30;99.90;;;;;;5025971;28;20638;-77
2021/12/16 05:57:31;;;;;;;1168.13;149.13;;;7.20;99.90;;;;;;4988524;28;20571;-77
2021/12/16 06:00:13;;;;;;;1008.33;149.75;;;7.20;99.90;;;;;;5027873;28;20060;-76
2021/12/16 06:02:41;;;;;;;1115.47;150.40;;;7.20;99.90;;;;;;5027737;28;20056;-78
2021/12/16 06:05:08;;;;;;;1131.82;155.48;;;7.20;99.90;;;;;;5025227;28;20064;-76
2021/12/16 06:07:35;;;;;;;1059.57;142.00;;;7.20;99.90;;;;;;5027292;28;20037;-77
2021/12/16 06:10:04;;;;;;;1044.70;147.88;;;7.10;99.90;;;;;;5027436;28;20057;-77
2021/12/16 06:12:31;;;;;;;1171.05;161.55;;;7.20;99.90;;;;;;5046977;28;20044;-77
2021/12/16 06:28:27;;;;;;;815.00;125.63;;;7.10;99.90;;;;;;5044688;28;20102;-76
2021/12/16 06:30:54;;;;;;;1056.53;150.73;;;7.00;99.90;;;;;;5044872;28;20033;-77
2021/12/16 06:33:25;;;;;;;1043.50;143.05;;;7.10;99.90;;;;;;5045184;28;20566;-77
2021/12/16 06:35:53;;;;;;;865.15;129.75;;;7.00;99.90;;;;;;5021251;28;20052;-77
2021/12/16 06:38:22;;;;;;;534.85;100.30;;;7.00;99.90;;;;;;5026342;28;20094;-77
2021/12/16 06:41:14;;;;;;;816.08;124.97;;;7.00;99.90;;;;;;5045546;28;20049;-76
2021/12/16 06:44:22;;;;;;;811.10;125.60;;;7.00;99.90;;;;;;5006162;28;20049;-77
2021/12/16 06:46:56;;;;;;;606.50;103.03;;;7.00;99.90;;;;;;5026132;28;20068;-76
2021/12/16 06:49:23;;;;;;;537.42;99.38;;;7.10;99.90;;;;;;5045518;28;20048;-77
2021/12/16 06:51:58;;;;;;;620.20;108.93;;;7.10;99.90;;;;;;5044614;28;20044;-77
2021/12/16 06:54:29;;;;;;;420.95;89.22;;;7.10;99.90;;;;;;5027469;28;20106;-77
2021/12/16 06:59:40;;;;;;;431.95;86.10;;;7.10;99.90;;;;;;5044482;28;20594;-76
2021/12/16 07:02:48;;;;;;;356.15;75.07;;;7.10;99.90;;;;;;5044552;28;20044;-78
2021/12/16 07:05:17;;;;;;;322.40;73.25;;;7.10;99.90;;;;;;5044283;28;20037;-77
2021/12/16 07:07:45;;;;;;;401.58;79.07;;;7.10;99.90;;;;;;5033328;28;20045;-77
2021/12/16 07:10:13;;;;;;;339.80;73.15;;;7.10;99.90;;;;;;5044742;28;20127;-77
2021/12/16 07:12:47;;;;;;;380.52;79.93;;;7.20;99.90;;;;;;5026452;28;20076;-77
2021/12/16 07:15:20;;;;;;;300.13;69.72;;;7.20;99.90;;;;;;5026437;28;20048;-77
2021/12/16 07:17:52;;;;;;;393.67;83.53;;;7.20;99.90;;;;;;5044472;28;20598;-77
2021/12/16 07:20:24;;;;;;;353.95;77.13;;;7.20;99.90;;;;;;5026287;28;20047;-76
2021/12/16 07:22:50;;;;;;;342.50;73.85;;;7.30;99.90;;;;;;5042844;28;20049;-75
2021/12/16 07:25:18;;;;;;;338.55;74.60;;;7.30;99.90;;;;;;5044056;28;20045;-77
2021/12/16 07:27:45;;;;;;;361.65;75.50;;;7.30;99.90;;;;;;5027275;28;20132;-77
2021/12/16 07:30:15;;;;;;;305.13;67.88;;;7.30;99.90;;;;;;5027995;28;20056;-77
2021/12/16 07:32:43;;;;;;;265.48;65.47;;;7.40;99.90;;;;;;5025175;28;20076;-77
2021/12/16 07:35:16;;;;;;;262.25;60.40;;;7.30;99.90;;;;;;5043524;28;20286;-77
2021/12/16 07:37:43;;;;;;;261.63;58.30;;;7.30;99.90;;;;;;5013902;28;20067;-77
2021/12/16 07:40:13;;;;;;;250.43;57.95;;;7.30;99.90;;;;;;5031915;28;20052;-77
2021/12/16 07:42:47;;;;;;;253.70;56.53;;;7.30;99.90;;;;;;5029175;28;20052;-77
2021/12/16 07:45:17;;;;;;;221.63;54.30;;;7.30;99.90;;;;;;5028166;28;20061;-77
2021/12/16 07:47:45;;;;;;;244.68;55.22;;;7.40;99.90;;;;;;5046278;28;20043;-77
2021/12/16 07:50:14;;;;;;;200.15;46.95;;;7.40;99.90;;;;;;5039290;28;20049;-77
2021/12/16 07:52:41;;;;;;;237.85;52.05;;;7.40;99.90;;;;;;5029216;28;20057;-77
2021/12/16 07:55:11;;;;;;;221.02;51.33;;;7.40;99.90;;;;;;5024961;28;20087;-74
2021/12/16 07:57:39;;;;;;;219.98;52.00;;;7.40;99.90;;;;;;5023588;28;20052;-76
2021/12/16 08:00:32;;;;;;;240.98;52.58;;;7.40;99.90;;;;;;5028467;28;20049;-76
2021/12/16 08:03:04;;;;;;;256.05;54.10;;;7.40;99.90;;;;;;5043181;28;20036;-75
2021/12/16 08:05:36;;;;;;;236.52;54.72;;;7.40;99.90;;;;;;5023872;28;20060;-76
2021/12/16 08:08:04;;;;;;;305.17;61.75;;;7.40;99.90;;;;;;5040964;28;20172;-76
2021/12/16 08:10:33;;;;;;;348.45;68.00;;;7.40;99.90;;;;;;5037234;28;20053;-76
2021/12/16 08:13:00;;;;;;;318.42;68.03;;;7.40;99.90;;;;;;5010746;28;20674;-75
2021/12/16 08:15:27;;;;;;;363.77;67.45;;;7.50;99.90;;;;;;5043841;28;20508;-76
2021/12/16 08:17:55;;;;;;;369.45;72.47;;;7.50;99.90;;;;;;5041126;28;20061;-76
2021/12/16 08:20:23;;;;;;;490.13;83.03;;;7.50;99.90;;;;;;5023162;28;20132;-76
2021/12/16 08:22:52;;;;;;;470.92;80.75;;;7.60;99.90;;;;;;5025648;28;20053;-76
2021/12/16 08:25:21;;;;;;;416.73;76.28;;;7.50;99.90;;;;;;5042175;28;20064;-76
2021/12/16 08:27:49;;;;;;;378.75;74.68;;;7.60;99.90;;;;;;5030293;28;20124;-75
2021/12/16 08:30:19;;;;;;;398.65;75.03;;;7.60;99.90;;;;;;5025119;28;20615;-74
2021/12/16 08:32:46;;;;;;;393.70;76.10;;;7.60;99.90;;;;;;5025034;28;20053;-76
2021/12/16 08:35:13;;;;;;;432.42;84.22;;;7.70;99.90;;;;;;5024566;28;20079;-76
2021/12/16 08:37:41;;;;;;;343.02;70.88;;;7.60;99.90;;;;;;5043194;28;20165;-76
2021/12/16 08:40:14;;;;;;;397.48;74.85;;;7.60;99.90;;;;;;5028768;28;20520;-75
2021/12/16 08:42:42;;;;;;;443.15;84.38;;;7.60;99.90;;;;;;5027512;28;20123;-76
2021/12/16 08:45:13;;;;;;;496.45;88.53;;;7.60;99.90;;;;;;5027722;28;20555;-76
2021/12/16 08:47:40;;;;;;;466.25;86.65;;;7.60;99.90;;;;;;5046162;28;20566;-76
2021/12/16 08:50:08;;;;;;;407.73;82.50;;;7.60;99.90;;;;;;5028540;28;20056;-76
2021/12/16 08:52:36;;;;;;;382.60;74.75;;;7.60;99.90;;;;;;5026038;28;20045;-76
2021/12/16 08:55:04;;;;;;;409.08;83.97;;;7.60;99.90;;;;;;5025603;28;20485;-76
2021/12/16 08:57:32;;;;;;;305.17;69.88;;;7.60;99.90;;;;;;5025777;28;20049;-76
2021/12/16 08:59:59;;;;;;;322.98;73.35;;;7.60;99.90;;;;;;5026940;28;20041;-76
2021/12/16 09:02:26;;;;;;;304.05;70.57;;;7.60;99.90;;;;;;5028613;28;20124;-76
2021/12/16 09:04:53;;;;;;;296.05;67.38;;;7.60;99.90;;;;;;5029853;28;20436;-76
2021/12/16 09:07:20;;;;;;;307.35;70.82;;;7.60;99.90;;;;;;5010746;28;20064;-77
2021/12/16 09:09:47;;;;;;;324.77;71.05;;;7.60;99.90;;;;;;5028463;28;20124;-76
2021/12/16 09:14:58;;;;;;;238.23;59.42;;;7.70;99.90;;;;;;5024965;28;20053;-76
2021/12/16 09:17:25;;;;;;;298.85;67.97;;;7.80;99.90;;;;;;5023860;28;20068;-77
2021/12/16 09:19:54;;;;;;;251.20;59.95;;;7.70;99.90;;;;;;5035365;28;20041;-76
2021/12/16 09:22:23;;;;;;;324.38;70.15;;;7.70;99.90;;;;;;5027651;28;20052;-76
2021/12/16 09:24:51;;;;;;;284.08;68.65;;;7.70;99.90;;;;;;5028509;28;20064;-75
2021/12/16 09:27:19;;;;;;;266.08;65.20;;;7.70;99.90;;;;;;5027717;28;20080;-75
2021/12/16 09:29:46;;;;;;;289.75;65.72;;;7.70;99.90;;;;;;5030209;28;20049;-75
2021/12/16 09:32:14;;;;;;;298.77;69.03;;;7.70;99.90;;;;;;5026762;28;20589;-75
2021/12/16 09:34:42;;;;;;;345.50;74.43;;;7.80;99.90;;;;;;5025050;28;20806;-76
2021/12/16 09:37:10;;;;;;;277.42;67.15;;;7.80;99.90;;;;;;5042887;28;20128;-74
2021/12/16 09:39:37;;;;;;;297.27;67.95;;;7.80;99.90;;;;;;5030198;28;20045;-73
2021/12/16 09:42:06;;;;;;;281.27;67.68;;;7.80;99.90;;;;;;4993774;28;20047;-74
2021/12/16 09:44:33;;;;;;;283.23;69.35;;;7.80;99.90;;;;;;5006206;28;20485;-73
2021/12/16 09:47:03;;;;;;;286.98;68.47;;;7.80;99.90;;;;;;5022489;28;20099;-73
2021/12/16 09:49:30;;;;;;;276.80;68.50;;;7.80;99.90;;;;;;5007009;28;20053;-74
2021/12/16 09:51:59;;;;;;;344.13;75.82;;;7.90;99.90;;;;;;5023788;28;20622;-76
2021/12/16 09:54:29;;;;;;;371.05;79.15;;;7.90;99.90;;;;;;5022102;28;20081;-76
2021/12/16 09:56:57;;;;;;;347.80;75.07;;;8.00;99.90;;;;;;5022716;28;20141;-76
2021/12/16 09:59:26;;;;;;;367.15;76.93;;;8.00;99.90;;;;;;5022745;28;20144;-76
2021/12/16 10:01:56;;;;;;;436.35;83.22;;;8.00;99.90;;;;;;5023214;28;20562;-76
2021/12/16 10:04:27;;;;;;;402.15;80.90;;;8.00;99.90;;;;;;5024043;28;20492;-74
2021/12/16 10:06:57;;;;;;;493.63;87.00;;;8.00;99.90;;;;;;5020582;28;20045;-73
2021/12/16 10:09:23;;;;;;;618.05;102.15;;;8.00;99.90;;;;;;5023441;28;20081;-74
2021/12/16 10:11:53;;;;;;;591.25;99.50;;;8.00;99.90;;;;;;5006419;28;20157;-76
2021/12/16 10:19:43;;;;;;;696.17;110.38;;;7.90;99.90;;;;;;5022218;28;20045;-76
2021/12/16 10:22:31;;;;;;;681.53;102.38;;;7.90;99.90;;;;;;5044711;23;20050;-70
2021/12/16 10:25:17;;;;;;;699.50;108.78;;;7.90;99.90;;;;;;5066995;28;20104;-72
2021/12/16 10:27:59;;;;;;;615.40;100.50;;;7.90;99.90;;;;;;5045091;28;20059;-70
2021/12/16 10:30:37;;;;;;;694.38;106.03;;;7.80;99.90;;;;;;5043656;28;20052;-69
2021/12/16 10:33:33;;;;;;;817.97;120.10;;;7.90;99.90;;;;;;5076487;28;20508;-69
2021/12/16 10:36:16;;;;;;;704.20;101.10;;;8.00;99.90;;;;;;5042649;28;20189;-70
2021/12/16 10:38:51;;;;;;;751.17;113.95;;;8.00;99.90;;;;;;5066212;28;20121;-68
2021/12/16 10:41:38;;;;;;;;;;;7.90;99.90;;;;;;5080319;28;20110;-69
2021/12/16 10:44:15;;;;;;;605.13;97.60;;;7.90;99.90;;;;;;5070733;28;19924;-69
2021/12/16 10:47:18;;;;;;;741.35;110.43;;;7.90;99.90;;;;;;5081685;28;20056;-69
2021/12/16 10:49:52;;;;;;;741.13;110.78;;;7.90;99.90;;;;;;5064407;28;20040;-68
2021/12/16 10:52:30;;;;;;;824.85;106.32;;;7.90;99.90;;;;;;5062535;28;20052;-68
2021/12/16 10:54:57;;;;;;;913.63;120.78;;;7.90;99.90;;;;;;5083717;28;20066;-68
2021/12/16 10:57:29;;;;;;;940.35;121.90;;;7.90;99.90;;;;;;5089063;28;20094;-68
2021/12/16 11:00:06;;;;;;;832.65;115.05;;;7.90;99.90;;;;;;5065156;28;20090;-69
2021/12/16 11:02:36;;;;;;;928.55;120.43;;;7.90;99.90;;;;;;5063146;28;20048;-69
2021/12/16 11:05:06;;;;;;;872.58;118.57;;;7.90;99.90;;;;;;5060641;28;20048;-69
2021/12/16 11:07:42;;;;;;;913.85;121.38;;;7.90;99.90;;;;;;5057495;28;20076;-69
2021/12/16 11:10:21;;;;;;;868.25;120.03;;;8.00;99.90;;;;;;5078559;28;20051;-69
2021/12/16 11:12:54;;;;;;;788.00;109.40;;;8.00;99.90;;;;;;5047894;28;20063;-68
2021/12/16 11:15:29;;;;;;;747.97;113.15;;;7.90;99.90;;;;;;5074212;28;20606;-69
2021/12/16 11:18:13;;;;;;;717.88;113.53;;;7.90;99.90;;;;;;5078749;28;20047;-70
2021/12/16 11:20:55;;;;;;;709.42;108.93;;;8.00;99.90;;;;;;5053336;28;20043;-69
2021/12/16 11:23:26;;;;;;;628.95;105.78;;;8.00;99.90;;;;;;5081891;28;20059;-68
2021/12/16 11:25:54;;;;;;;503.42;88.47;;;7.90;99.90;;;;;;5081768;28;20116;-68
2021/12/16 11:28:23;;;;;;;600.42;103.85;;;8.00;99.90;;;;;;5078714;28;20044;-69
2021/12/16 11:31:00;;;;;;;356.88;73.38;;;8.10;99.90;;;;;;5080294;28;20048;-69
2021/12/16 11:33:34;;;;;;;409.67;81.93;;;8.10;99.90;;;;;;5061177;28;20063;-68
2021/12/16 11:36:21;;;;;;;373.17;78.95;;;8.20;99.90;;;;;;5063383;28;20485;-69
2021/12/16 11:38:50;;;;;;;406.95;82.35;;;8.20;99.90;;;;;;5056592;28;20588;-69
2021/12/16 11:41:29;;;;;;;377.85;79.35;;;8.10;99.90;;;;;;5060376;28;20277;-69
2021/12/16 11:44:20;;;;;;;511.45;89.95;;;8.20;99.90;;;;;;5076298;28;20310;-70
2021/12/16 11:46:52;;;;;;;387.50;76.75;;;8.20;99.90;;;;;;5075686;28;20119;-68
2021/12/16 11:49:34;;;;;;;366.45;76.40;;;8.30;99.90;;;;;;5076190;28;20040;-69
2021/12/16 11:52:01;;;;;;;472.23;87.38;;;8.30;99.90;;;;;;5060686;28;20131;-68
2021/12/16 11:54:38;;;;;;;436.92;88.20;;;8.20;99.90;;;;;;5060085;28;20090;-70
2021/12/16 11:57:15;;;;;;;459.40;89.32;;;8.20;99.90;;;;;;5078899;28;20044;-69
2021/12/16 11:59:47;;;;;;;444.65;87.28;;;8.20;99.90;;;;;;5079045;28;20371;-69
2021/12/16 12:02:31;;;;;;;389.70;81.93;;;8.20;99.90;;;;;;5080535;28;20047;-69
2021/12/16 12:05:25;;;;;;;363.70;80.45;;;8.30;99.90;;;;;;5095587;28;20071;-69
2021/12/16 12:08:05;;;;;;;353.20;76.05;;;8.30;99.90;;;;;;5069614;28;20048;-70
2021/12/16 12:10:35;;;;;;;285.77;70.18;;;8.30;99.90;;;;;;5082798;28;20055;-68
2021/12/16 12:13:06;;;;;;;343.95;77.18;;;8.30;99.90;;;;;;5063524;28;20063;-69
2021/12/16 12:15:58;;;;;;;278.80;72.47;;;8.30;99.90;;;;;;5079910;28;20669;-68
2021/12/16 12:18:47;;;;;;;258.48;62.78;;;8.30;99.90;;;;;;5059051;28;20521;-69
2021/12/16 12:21:14;;;;;;;267.73;65.53;;;8.20;99.90;;;;;;5059648;28;20044;-68
2021/12/16 12:23:42;;;;;;;253.43;64.45;;;8.30;99.90;;;;;;5065784;28;20052;-70
2021/12/16 12:26:16;;;;;;;264.40;67.38;;;8.30;99.90;;;;;;5084276;28;20123;-70
2021/12/16 12:28:56;;;;;;;240.17;66.30;;;8.40;99.90;;;;;;5068826;28;20066;-70
2021/12/16 12:31:27;;;;;;;243.95;60.80;;;8.40;99.90;;;;;;5066476;28;20051;-69
2021/12/16 12:33:54;;;;;;;222.50;58.78;;;8.40;99.90;;;;;;5059865;28;20056;-70
2021/12/16 12:36:23;;;;;;;246.57;65.38;;;8.40;99.90;;;;;;5065380;28;20135;-70
2021/12/16 12:38:51;;;;;;;259.25;66.50;;;8.40;99.90;;;;;;5063893;28;20083;-69
2021/12/16 12:41:20;;;;;;;251.98;65.80;;;8.50;99.90;;;;;;5061274;28;20132;-69
2021/12/16 12:43:48;;;;;;;251.15;65.13;;;8.50;99.90;;;;;;5061189;28;20146;-69
2021/12/16 12:46:18;;;;;;;264.90;68.05;;;8.50;99.90;;;;;;5060083;28;20052;-69
2021/12/16 12:48:47;;;;;;;272.55;68.13;;;8.50;99.90;;;;;;5060773;28;20052;-69
2021/12/16 12:51:14;;;;;;;264.48;66.07;;;8.50;99.90;;;;;;5059024;28;20368;-68
2021/12/16 12:53:50;;;;;;;277.05;66.20;;;8.50;99.90;;;;;;5078917;28;20074;-69
2021/12/16 12:56:31;;;;;;;262.48;66.60;;;8.50;99.90;;;;;;5059942;28;20397;-70
2021/12/16 12:59:01;;;;;;;247.02;62.97;;;8.50;99.90;;;;;;5078642;28;20735;-69
2021/12/16 13:01:42;;;;;;;263.58;66.40;;;8.50;99.90;;;;;;5077336;28;20507;-68
2021/12/16 13:04:13;;;;;;;216.05;59.13;;;8.50;99.90;;;;;;5060647;28;20123;-70
2021/12/16 13:07:04;;;;;;;274.45;64.15;;;8.50;99.90;;;;;;5077800;28;20252;-69
2021/12/16 13:09:31;;;;;;;253.73;65.60;;;8.50;99.90;;;;;;5075535;28;20063;-68
2021/12/16 13:12:01;;;;;;;200.35;55.97;;;8.50;99.90;;;;;;5048413;28;20330;-69
2021/12/16 13:14:46;;;;;;;203.90;59.45;;;8.50;99.90;;;;;;5057994;28;20040;-69
2021/12/16 13:29:13;;;;;;;341.35;74.50;;;8.60;99.90;;;;;;5049381;28;20105;-69
2021/12/16 13:32:06;;;;;;;405.17;82.05;;;8.50;99.90;;;;;;5046732;28;20043;-70
2021/12/16 13:34:59;;;;;;;533.88;93.40;;;8.60;99.90;;;;;;5064736;28;20122;-69
2021/12/16 13:37:42;;;;;;;596.72;96.50;;;8.60;99.90;;;;;;5067680;28;20048;-69
2021/12/16 13:40:19;;;;;;;536.22;92.75;;;8.50;99.90;;;;;;5088280;28;20112;-69
2021/12/16 13:43:00;;;;;;;625.03;99.82;;;8.50;99.90;;;;;;5075432;28;20476;-69
2021/12/16 13:45:42;;;;;;;726.63;104.93;;;8.50;99.90;;;;;;5101290;28;20122;-70
2021/12/16 14:07:56;;;;;;;910.22;131.18;;;8.60;99.90;;;;;;5074850;28;20571;-68
2021/12/16 14:10:39;;;;;;;925.58;127.57;;;8.60;99.90;;;;;;5080746;28;20048;-68
2021/12/16 14:25:15;;;;;;;777.72;114.45;;;8.50;99.90;;;;;;4996699;28;20112;-69
2021/12/16 14:45:17;;;;;;;711.38;102.25;;;8.50;99.90;;;;;;5041977;28;20052;-70
2021/12/16 14:49:52;;;;;;;875.10;115.35;;;8.50;99.90;;;;;;5060645;28;20047;-70
2021/12/16 14:52:23;;;;;;;786.03;111.70;;;8.50;99.90;;;;;;5042051;28;20097;-69
2021/12/16 14:54:59;;;;;;;944.72;120.85;;;8.50;99.90;;;;;;5061136;28;20060;-70
2021/12/16 14:57:30;;;;;;;913.55;124.68;;;8.50;99.90;;;;;;5079293;28;20052;-70
2021/12/16 14:59:57;;;;;;;775.78;110.70;;;8.50;99.90;;;;;;5062512;28;20071;-70
2021/12/16 15:02:30;;;;;;;900.28;118.38;;;8.50;99.90;;;;;;5061419;28;20121;-70
2021/12/16 15:04:57;;;;;;;822.22;119.20;;;8.50;99.90;;;;;;5091228;28;20044;-68
2021/12/16 15:07:26;;;;;;;895.67;122.25;;;8.50;99.90;;;;;;5053586;28;20531;-70
2021/12/16 15:09:56;;;;;;;859.70;125.72;;;8.50;99.90;;;;;;5044977;28;20052;-69
2021/12/16 15:15:32;;;;;;;890.00;127.65;;;8.60;99.90;;;;;;5032108;28;20128;-69
2021/12/16 15:42:43;;;;;;;925.65;122.15;;;8.60;99.90;;;;;;5060430;28;20118;-70
2021/12/16 15:43:44;;;;;;;757.15;110.20;;;8.60;99.90;;;;;;5059918;28;20094;-69
2021/12/16 15:46:12;;;;;;;615.83;90.75;;;8.60;99.90;;;;;;5065223;28;20208;-70
2021/12/16 15:48:38;;;;;;;706.08;102.13;;;8.60;99.90;;;;;;5080987;28;20040;-69
2021/12/16 15:51:11;;;;;;;758.92;111.07;;;8.60;99.90;;;;;;5082463;28;20584;-70
2021/12/16 15:53:52;;;;;;;719.50;106.85;;;8.60;99.90;;;;;;5082644;28;20051;-69
2021/12/16 15:56:28;;;;;;;511.13;86.07;;;8.60;99.90;;;;;;5080981;28;20123;-70
2021/12/16 15:58:58;;;;;;;707.42;99.28;;;8.60;99.90;;;;;;5065422;28;20048;-71
2021/12/16 16:01:29;;;;;;;215.77;52.78;;;8.60;99.90;;;;;;5058076;28;20040;-72
2021/12/16 16:03:57;;;;;;;310.02;68.78;;;8.60;99.90;;;;;;5080039;28;20048;-71
2021/12/16 16:06:26;;;;;;;581.95;93.18;;;8.50;99.90;;;;;;5066982;28;20048;-72
2021/12/16 16:08:59;;;;;;;148.18;40.92;;;8.50;99.90;;;;;;5062057;28;20109;-73
2021/12/16 16:11:32;;;;;;;144.13;39.67;;;8.50;99.90;;;;;;5080213;28;20040;-73
2021/12/16 16:14:03;;;;;;;204.68;49.72;;;8.40;99.90;;;;;;5063494;28;20120;-73
2021/12/16 16:16:44;;;;;;;208.75;50.85;;;8.40;99.90;;;;;;5079580;28;20076;-73
2021/12/16 16:19:14;;;;;;;215.90;51.75;;;8.50;99.90;;;;;;5061115;28;20044;-73
2021/12/16 16:21:46;;;;;;;162.80;44.08;;;8.50;99.90;;;;;;5061988;28;20044;-72
2021/12/16 16:24:17;;;;;;;177.27;46.10;;;8.40;99.90;;;;;;5107716;22;20049;-71
2021/12/16 16:26:45;;;;;;;194.65;46.35;;;8.40;99.90;;;;;;5054859;28;20051;-70
2021/12/16 16:29:17;;;;;;;265.80;59.95;;;8.40;99.90;;;;;;5047447;28;20054;-71
2021/12/16 16:31:44;;;;;;;283.58;62.00;;;8.40;99.90;;;;;;4973268;28;20111;-69
2021/12/16 16:34:16;;;;;;;332.38;63.72;;;8.40;99.90;;;;;;4972473;28;20111;-70
2021/12/16 16:36:52;;;;;;;311.98;64.85;;;8.50;99.90;;;;;;5043193;28;20524;-71
2021/12/16 16:39:24;;;;;;;190.07;47.30;;;8.50;99.90;;;;;;5074628;28;20399;-70
2021/12/16 16:42:01;;;;;;;208.13;50.17;;;8.40;99.90;;;;;;5065980;28;20048;-70
2021/12/16 16:44:29;;;;;;;234.07;54.85;;;8.40;99.90;;;;;;5076744;28;20048;-69
2021/12/16 16:47:05;;;;;;;192.85;50.67;;;8.40;99.90;;;;;;5071670;28;20048;-68